sensor_id;sensor_type;location;lat;lon;timestamp;P1;durP1;ratioP1;P2;durP2;ratioP2
20970;SDS011;10644;48.834;10.088;2023-04-28T00:00:53;15.87;;;6.80;;
20970;SDS011;10644;48.834;10.088;2023-04-28T00:03:20;13.77;;;6.57;;
20970;SDS011;10644;48.834;10.088;2023-04-28T00:05:46;13.13;;;6.17;;
20970;SDS011;10644;48.834;10.088;2023-04-28T00:08:13;10.70;;;6.33;;
20970;SDS011;10644;48.834;10.088;2023-04-28T00:10:38;10.47;;;6.70;;
20970;SDS011;10644;48.834;10.088;2023-04-28T00:13:04;10.10;;;6.23;;
20970;SDS011;10644;48.834;10.088;2023-04-28T00:15:29;9.67;;;5.70;;
20970;SDS011;10644;48.834;10.088;2023-04-28T00:17:55;8.60;;;5.90;;
20970;SDS011;10644;48.834;10.088;2023-04-28T00:20:20;8.17;;;5.97;;
20970;SDS011;10644;48.834;10.088;2023-04-28T00:22:45;19.47;;;6.63;;
20970;SDS011;10644;48.834;10.088;2023-04-28T00:25:11;9.53;;;6.00;;
20970;SDS011;10644;48.834;10.088;2023-04-28T00:27:36;13.37;;;6.00;;
20970;SDS011;10644;48.834;10.088;2023-04-28T00:30:04;10.20;;;5.73;;
20970;SDS011;10644;48.834;10.088;2023-04-28T00:32:30;8.80;;;5.97;;
20970;SDS011;10644;48.834;10.088;2023-04-28T00:34:56;7.90;;;6.00;;
20970;SDS011;10644;48.834;10.088;2023-04-28T00:37:21;9.90;;;6.20;;
20970;SDS011;10644;48.834;10.088;2023-04-28T00:39:47;15.20;;;6.57;;
20970;SDS011;10644;48.834;10.088;2023-04-28T00:42:12;11.50;;;6.50;;
20970;SDS011;10644;48.834;10.088;2023-04-28T00:44:41;11.27;;;6.47;;
20970;SDS011;10644;48.834;10.088;2023-04-28T00:47:09;12.27;;;6.33;;
20970;SDS011;10644;48.834;10.088;2023-04-28T00:49:35;7.23;;;5.90;;
20970;SDS011;10644;48.834;10.088;2023-04-28T00:52:03;13.13;;;6.27;;
20970;SDS011;10644;48.834;10.088;2023-04-28T00:54:31;11.10;;;6.20;;
20970;SDS011;10644;48.834;10.088;2023-04-28T00:56:58;12.53;;;6.57;;
20970;SDS011;10644;48.834;10.088;2023-04-28T00:59:24;6.83;;;5.00;;
20970;SDS011;10644;48.834;10.088;2023-04-28T01:01:49;9.10;;;6.00;;
20970;SDS011;10644;48.834;10.088;2023-04-28T01:04:15;11.70;;;6.80;;
20970;SDS011;10644;48.834;10.088;2023-04-28T01:06:43;12.07;;;6.67;;
20970;SDS011;10644;48.834;10.088;2023-04-28T01:09:08;12.70;;;6.07;;
20970;SDS011;10644;48.834;10.088;2023-04-28T01:11:36;10.27;;;6.90;;
20970;SDS011;10644;48.834;10.088;2023-04-28T01:14:01;11.53;;;6.30;;
20970;SDS011;10644;48.834;10.088;2023-04-28T01:16:27;15.90;;;6.63;;
20970;SDS011;10644;48.834;10.088;2023-04-28T01:18:54;12.13;;;6.40;;
20970;SDS011;10644;48.834;10.088;2023-04-28T01:21:52;14.73;;;7.03;;
20970;SDS011;10644;48.834;10.088;2023-04-28T01:24:11;9.47;;;5.90;;
20970;SDS011;10644;48.834;10.088;2023-04-28T01:26:36;10.20;;;6.37;;
20970;SDS011;10644;48.834;10.088;2023-04-28T01:29:01;16.23;;;6.30;;
20970;SDS011;10644;48.834;10.088;2023-04-28T01:31:27;15.63;;;6.40;;
20970;SDS011;10644;48.834;10.088;2023-04-28T01:33:54;9.60;;;6.13;;
20970;SDS011;10644;48.834;10.088;2023-04-28T01:36:20;15.53;;;7.60;;
20970;SDS011;10644;48.834;10.088;2023-04-28T01:38:46;9.97;;;6.10;;
20970;SDS011;10644;48.834;10.088;2023-04-28T01:41:11;9.20;;;6.50;;
20970;SDS011;10644;48.834;10.088;2023-04-28T01:43:37;10.77;;;6.30;;
20970;SDS011;10644;48.834;10.088;2023-04-28T01:46:02;15.70;;;6.40;;
20970;SDS011;10644;48.834;10.088;2023-04-28T01:48:27;10.67;;;6.40;;
20970;SDS011;10644;48.834;10.088;2023-04-28T01:50:53;17.93;;;7.03;;
20970;SDS011;10644;48.834;10.088;2023-04-28T01:53:23;11.40;;;6.90;;
20970;SDS011;10644;48.834;10.088;2023-04-28T01:58:36;17.50;;;7.97;;
20970;SDS011;10644;48.834;10.088;2023-04-28T02:01:01;12.80;;;7.10;;
20970;SDS011;10644;48.834;10.088;2023-04-28T02:03:27;10.50;;;7.00;;
20970;SDS011;10644;48.834;10.088;2023-04-28T02:05:52;11.00;;;7.27;;
20970;SDS011;10644;48.834;10.088;2023-04-28T02:08:18;10.87;;;6.40;;
20970;SDS011;10644;48.834;10.088;2023-04-28T02:10:43;10.97;;;6.20;;
20970;SDS011;10644;48.834;10.088;2023-04-28T02:13:09;12.83;;;6.10;;
20970;SDS011;10644;48.834;10.088;2023-04-28T02:15:38;13.73;;;6.33;;
20970;SDS011;10644;48.834;10.088;2023-04-28T02:18:07;8.67;;;6.33;;
20970;SDS011;10644;48.834;10.088;2023-04-28T02:20:32;11.83;;;7.20;;
20970;SDS011;10644;48.834;10.088;2023-04-28T02:22:58;10.83;;;6.57;;
20970;SDS011;10644;48.834;10.088;2023-04-28T02:25:23;9.77;;;6.67;;
20970;SDS011;10644;48.834;10.088;2023-04-28T02:27:48;13.23;;;7.07;;
20970;SDS011;10644;48.834;10.088;2023-04-28T02:30:14;14.53;;;7.47;;
20970;SDS011;10644;48.834;10.088;2023-04-28T02:32:39;12.07;;;6.80;;
20970;SDS011;10644;48.834;10.088;2023-04-28T02:35:05;13.20;;;7.53;;
20970;SDS011;10644;48.834;10.088;2023-04-28T02:37:30;20.87;;;7.97;;
20970;SDS011;10644;48.834;10.088;2023-04-28T02:39:56;19.10;;;7.40;;
20970;SDS011;10644;48.834;10.088;2023-04-28T02:42:22;14.83;;;8.00;;
20970;SDS011;10644;48.834;10.088;2023-04-28T02:44:47;11.50;;;7.27;;
20970;SDS011;10644;48.834;10.088;2023-04-28T02:47:12;10.63;;;7.00;;
20970;SDS011;10644;48.834;10.088;2023-04-28T02:49:40;9.07;;;6.97;;
20970;SDS011;10644;48.834;10.088;2023-04-28T02:52:05;12.67;;;7.57;;
20970;SDS011;10644;48.834;10.088;2023-04-28T02:54:30;11.10;;;6.60;;
20970;SDS011;10644;48.834;10.088;2023-04-28T02:56:58;12.43;;;6.77;;
20970;SDS011;10644;48.834;10.088;2023-04-28T02:59:23;14.47;;;7.67;;
20970;SDS011;10644;48.834;10.088;2023-04-28T03:01:54;14.50;;;8.53;;
20970;SDS011;10644;48.834;10.088;2023-04-28T03:04:19;14.53;;;7.20;;
20970;SDS011;10644;48.834;10.088;2023-04-28T03:06:45;13.80;;;8.10;;
20970;SDS011;10644;48.834;10.088;2023-04-28T03:09:10;15.40;;;7.70;;
20970;SDS011;10644;48.834;10.088;2023-04-28T03:11:36;10.90;;;7.30;;
20970;SDS011;10644;48.834;10.088;2023-04-28T03:14:02;17.00;;;7.83;;
20970;SDS011;10644;48.834;10.088;2023-04-28T03:16:27;8.10;;;5.37;;
20970;SDS011;10644;48.834;10.088;2023-04-28T03:18:53;9.40;;;5.77;;
20970;SDS011;10644;48.834;10.088;2023-04-28T03:21:18;13.33;;;5.70;;
20970;SDS011;10644;48.834;10.088;2023-04-28T03:23:43;13.07;;;6.10;;
20970;SDS011;10644;48.834;10.088;2023-04-28T03:26:09;7.77;;;5.70;;
20970;SDS011;10644;48.834;10.088;2023-04-28T03:28:34;10.00;;;5.33;;
20970;SDS011;10644;48.834;10.088;2023-04-28T03:31:00;11.03;;;5.60;;
20970;SDS011;10644;48.834;10.088;2023-04-28T03:33:26;12.17;;;8.43;;
20970;SDS011;10644;48.834;10.088;2023-04-28T03:35:52;10.80;;;7.20;;
20970;SDS011;10644;48.834;10.088;2023-04-28T03:38:18;14.70;;;7.47;;
20970;SDS011;10644;48.834;10.088;2023-04-28T03:40:43;14.73;;;7.83;;
20970;SDS011;10644;48.834;10.088;2023-04-28T03:43:09;11.53;;;7.63;;
20970;SDS011;10644;48.834;10.088;2023-04-28T03:45:37;12.80;;;7.33;;
20970;SDS011;10644;48.834;10.088;2023-04-28T03:48:05;11.60;;;7.07;;
20970;SDS011;10644;48.834;10.088;2023-04-28T03:50:31;13.03;;;7.13;;
20970;SDS011;10644;48.834;10.088;2023-04-28T03:52:56;16.20;;;6.47;;
20970;SDS011;10644;48.834;10.088;2023-04-28T03:55:21;10.33;;;6.60;;
20970;SDS011;10644;48.834;10.088;2023-04-28T03:57:47;15.23;;;7.20;;
20970;SDS011;10644;48.834;10.088;2023-04-28T04:00:12;10.13;;;6.80;;
20970;SDS011;10644;48.834;10.088;2023-04-28T04:02:38;12.43;;;8.20;;
20970;SDS011;10644;48.834;10.088;2023-04-28T04:05:03;12.67;;;6.97;;
20970;SDS011;10644;48.834;10.088;2023-04-28T04:07:29;10.60;;;7.70;;
20970;SDS011;10644;48.834;10.088;2023-04-28T04:09:54;14.07;;;7.73;;
20970;SDS011;10644;48.834;10.088;2023-04-28T04:12:20;8.97;;;5.97;;
20970;SDS011;10644;48.834;10.088;2023-04-28T04:14:45;8.60;;;5.53;;
20970;SDS011;10644;48.834;10.088;2023-04-28T04:17:10;9.53;;;6.73;;
20970;SDS011;10644;48.834;10.088;2023-04-28T04:19:36;13.83;;;8.87;;
20970;SDS011;10644;48.834;10.088;2023-04-28T04:22:01;12.50;;;8.47;;
20970;SDS011;10644;48.834;10.088;2023-04-28T04:24:26;16.57;;;8.33;;
20970;SDS011;10644;48.834;10.088;2023-04-28T04:26:52;11.57;;;7.50;;
20970;SDS011;10644;48.834;10.088;2023-04-28T04:29:17;15.13;;;8.33;;
20970;SDS011;10644;48.834;10.088;2023-04-28T04:31:42;23.00;;;9.50;;
20970;SDS011;10644;48.834;10.088;2023-04-28T04:34:09;16.40;;;7.03;;
20970;SDS011;10644;48.834;10.088;2023-04-28T04:36:35;21.83;;;9.03;;
20970;SDS011;10644;48.834;10.088;2023-04-28T04:39:00;27.43;;;11.50;;
20970;SDS011;10644;48.834;10.088;2023-04-28T04:41:25;22.43;;;9.63;;
20970;SDS011;10644;48.834;10.088;2023-04-28T04:43:51;14.73;;;7.30;;
20970;SDS011;10644;48.834;10.088;2023-04-28T04:46:16;20.80;;;8.40;;
20970;SDS011;10644;48.834;10.088;2023-04-28T04:48:42;17.93;;;8.40;;
20970;SDS011;10644;48.834;10.088;2023-04-28T04:51:07;24.87;;;8.80;;
20970;SDS011;10644;48.834;10.088;2023-04-28T04:53:32;19.37;;;9.10;;
20970;SDS011;10644;48.834;10.088;2023-04-28T04:55:58;20.83;;;9.20;;
20970;SDS011;10644;48.834;10.088;2023-04-28T04:58:24;20.97;;;8.60;;
20970;SDS011;10644;48.834;10.088;2023-04-28T05:00:49;21.37;;;9.10;;
20970;SDS011;10644;48.834;10.088;2023-04-28T05:03:15;19.70;;;8.30;;
20970;SDS011;10644;48.834;10.088;2023-04-28T05:05:41;17.47;;;7.93;;
20970;SDS011;10644;48.834;10.088;2023-04-28T05:08:06;15.17;;;8.60;;
20970;SDS011;10644;48.834;10.088;2023-04-28T05:10:33;19.77;;;8.77;;
20970;SDS011;10644;48.834;10.088;2023-04-28T05:12:58;19.13;;;8.30;;
20970;SDS011;10644;48.834;10.088;2023-04-28T05:15:24;25.10;;;9.60;;
20970;SDS011;10644;48.834;10.088;2023-04-28T05:17:49;33.40;;;11.87;;
20970;SDS011;10644;48.834;10.088;2023-04-28T05:20:14;15.50;;;8.17;;
20970;SDS011;10644;48.834;10.088;2023-04-28T05:22:40;19.47;;;9.60;;
20970;SDS011;10644;48.834;10.088;2023-04-28T05:25:05;26.93;;;10.00;;
20970;SDS011;10644;48.834;10.088;2023-04-28T05:27:31;22.27;;;9.67;;
20970;SDS011;10644;48.834;10.088;2023-04-28T05:29:56;21.23;;;9.00;;
20970;SDS011;10644;48.834;10.088;2023-04-28T05:32:23;20.30;;;9.53;;
20970;SDS011;10644;48.834;10.088;2023-04-28T05:34:49;20.87;;;9.00;;
20970;SDS011;10644;48.834;10.088;2023-04-28T05:37:14;19.40;;;9.23;;
20970;SDS011;10644;48.834;10.088;2023-04-28T05:39:40;20.93;;;9.50;;
20970;SDS011;10644;48.834;10.088;2023-04-28T05:42:05;28.93;;;11.60;;
20970;SDS011;10644;48.834;10.088;2023-04-28T05:44:30;21.13;;;9.53;;
20970;SDS011;10644;48.834;10.088;2023-04-28T05:46:55;23.00;;;10.73;;
20970;SDS011;10644;48.834;10.088;2023-04-28T05:49:21;29.10;;;12.07;;
20970;SDS011;10644;48.834;10.088;2023-04-28T05:51:46;25.23;;;10.47;;
20970;SDS011;10644;48.834;10.088;2023-04-28T05:54:12;21.40;;;10.93;;
20970;SDS011;10644;48.834;10.088;2023-04-28T05:56:37;21.93;;;10.97;;
20970;SDS011;10644;48.834;10.088;2023-04-28T05:59:02;30.20;;;12.50;;
20970;SDS011;10644;48.834;10.088;2023-04-28T06:01:29;25.67;;;11.70;;
20970;SDS011;10644;48.834;10.088;2023-04-28T06:03:55;22.63;;;10.10;;
20970;SDS011;10644;48.834;10.088;2023-04-28T06:06:23;34.43;;;12.67;;
20970;SDS011;10644;48.834;10.088;2023-04-28T06:08:52;20.07;;;9.73;;
20970;SDS011;10644;48.834;10.088;2023-04-28T06:11:18;26.30;;;10.80;;
20970;SDS011;10644;48.834;10.088;2023-04-28T06:13:48;17.70;;;10.20;;
20970;SDS011;10644;48.834;10.088;2023-04-28T06:16:15;17.10;;;9.80;;
20970;SDS011;10644;48.834;10.088;2023-04-28T06:18:42;28.27;;;11.70;;
20970;SDS011;10644;48.834;10.088;2023-04-28T06:21:07;23.80;;;10.30;;
20970;SDS011;10644;48.834;10.088;2023-04-28T06:23:33;24.30;;;12.50;;
20970;SDS011;10644;48.834;10.088;2023-04-28T06:25:58;20.83;;;10.17;;
20970;SDS011;10644;48.834;10.088;2023-04-28T06:28:24;26.40;;;11.67;;
20970;SDS011;10644;48.834;10.088;2023-04-28T06:30:49;20.30;;;10.77;;
20970;SDS011;10644;48.834;10.088;2023-04-28T06:33:15;20.73;;;11.80;;
20970;SDS011;10644;48.834;10.088;2023-04-28T06:35:45;30.73;;;13.30;;
20970;SDS011;10644;48.834;10.088;2023-04-28T06:38:10;40.57;;;14.43;;
20970;SDS011;10644;48.834;10.088;2023-04-28T06:40:36;29.90;;;12.63;;
20970;SDS011;10644;48.834;10.088;2023-04-28T06:43:01;27.50;;;12.63;;
20970;SDS011;10644;48.834;10.088;2023-04-28T06:45:27;21.37;;;11.63;;
20970;SDS011;10644;48.834;10.088;2023-04-28T06:47:52;29.37;;;12.63;;
20970;SDS011;10644;48.834;10.088;2023-04-28T06:50:20;29.47;;;12.47;;
20970;SDS011;10644;48.834;10.088;2023-04-28T06:52:46;22.97;;;11.47;;
20970;SDS011;10644;48.834;10.088;2023-04-28T06:55:13;35.27;;;13.73;;
20970;SDS011;10644;48.834;10.088;2023-04-28T06:57:40;24.23;;;13.53;;
20970;SDS011;10644;48.834;10.088;2023-04-28T07:00:06;24.37;;;11.80;;
20970;SDS011;10644;48.834;10.088;2023-04-28T07:02:32;25.97;;;13.43;;
20970;SDS011;10644;48.834;10.088;2023-04-28T07:04:58;28.73;;;12.70;;
20970;SDS011;10644;48.834;10.088;2023-04-28T07:07:24;24.13;;;12.47;;
20970;SDS011;10644;48.834;10.088;2023-04-28T07:09:50;25.30;;;12.80;;
20970;SDS011;10644;48.834;10.088;2023-04-28T07:12:17;27.63;;;12.97;;
20970;SDS011;10644;48.834;10.088;2023-04-28T07:14:42;31.63;;;13.90;;
20970;SDS011;10644;48.834;10.088;2023-04-28T07:17:08;23.93;;;12.23;;
20970;SDS011;10644;48.834;10.088;2023-04-28T07:19:33;22.53;;;12.00;;
20970;SDS011;10644;48.834;10.088;2023-04-28T07:21:58;26.33;;;12.67;;
20970;SDS011;10644;48.834;10.088;2023-04-28T07:24:24;26.00;;;14.20;;
20970;SDS011;10644;48.834;10.088;2023-04-28T07:26:51;29.53;;;15.27;;
20970;SDS011;10644;48.834;10.088;2023-04-28T07:29:16;24.10;;;14.33;;
20970;SDS011;10644;48.834;10.088;2023-04-28T07:31:42;22.17;;;13.20;;
20970;SDS011;10644;48.834;10.088;2023-04-28T07:34:07;31.17;;;14.73;;
20970;SDS011;10644;48.834;10.088;2023-04-28T07:36:33;31.67;;;16.00;;
20970;SDS011;10644;48.834;10.088;2023-04-28T07:38:59;26.70;;;15.47;;
20970;SDS011;10644;48.834;10.088;2023-04-28T07:41:25;24.37;;;14.27;;
20970;SDS011;10644;48.834;10.088;2023-04-28T07:43:51;33.17;;;16.47;;
20970;SDS011;10644;48.834;10.088;2023-04-28T07:46:19;26.67;;;12.50;;
20970;SDS011;10644;48.834;10.088;2023-04-28T07:48:45;28.10;;;14.27;;
20970;SDS011;10644;48.834;10.088;2023-04-28T07:51:10;24.40;;;15.10;;
20970;SDS011;10644;48.834;10.088;2023-04-28T07:53:36;33.00;;;15.50;;
20970;SDS011;10644;48.834;10.088;2023-04-28T07:56:01;25.90;;;15.30;;
20970;SDS011;10644;48.834;10.088;2023-04-28T07:58:27;27.23;;;15.90;;
20970;SDS011;10644;48.834;10.088;2023-04-28T08:00:55;24.43;;;13.37;;
20970;SDS011;10644;48.834;10.088;2023-04-28T08:03:20;21.70;;;13.10;;
20970;SDS011;10644;48.834;10.088;2023-04-28T08:05:46;27.80;;;13.57;;
20970;SDS011;10644;48.834;10.088;2023-04-28T08:08:11;30.10;;;16.00;;
20970;SDS011;10644;48.834;10.088;2023-04-28T08:10:36;27.60;;;14.87;;
20970;SDS011;10644;48.834;10.088;2023-04-28T08:13:04;22.13;;;13.50;;
20970;SDS011;10644;48.834;10.088;2023-04-28T08:15:29;28.60;;;13.80;;
20970;SDS011;10644;48.834;10.088;2023-04-28T08:17:55;22.27;;;12.73;;
20970;SDS011;10644;48.834;10.088;2023-04-28T08:20:20;20.77;;;12.40;;
20970;SDS011;10644;48.834;10.088;2023-04-28T08:22:46;26.40;;;12.40;;
20970;SDS011;10644;48.834;10.088;2023-04-28T08:25:11;26.57;;;11.90;;
20970;SDS011;10644;48.834;10.088;2023-04-28T08:27:37;31.10;;;13.37;;
20970;SDS011;10644;48.834;10.088;2023-04-28T08:30:04;25.70;;;12.40;;
20970;SDS011;10644;48.834;10.088;2023-04-28T08:32:31;25.03;;;12.00;;
20970;SDS011;10644;48.834;10.088;2023-04-28T08:34:57;23.27;;;11.63;;
20970;SDS011;10644;48.834;10.088;2023-04-28T08:37:22;21.77;;;11.47;;
20970;SDS011;10644;48.834;10.088;2023-04-28T08:39:48;22.47;;;12.23;;
20970;SDS011;10644;48.834;10.088;2023-04-28T08:42:23;21.73;;;14.03;;
20970;SDS011;10644;48.834;10.088;2023-04-28T08:44:50;23.73;;;13.10;;
20970;SDS011;10644;48.834;10.088;2023-04-28T08:47:23;22.37;;;12.13;;
20970;SDS011;10644;48.834;10.088;2023-04-28T08:49:52;23.70;;;11.87;;
20970;SDS011;10644;48.834;10.088;2023-04-28T08:52:22;26.00;;;13.03;;
20970;SDS011;10644;48.834;10.088;2023-04-28T08:54:49;19.00;;;10.97;;
20970;SDS011;10644;48.834;10.088;2023-04-28T08:57:15;31.03;;;15.63;;
20970;SDS011;10644;48.834;10.088;2023-04-28T08:59:42;20.50;;;12.17;;
20970;SDS011;10644;48.834;10.088;2023-04-28T09:02:08;18.60;;;10.37;;
20970;SDS011;10644;48.834;10.088;2023-04-28T09:04:34;20.73;;;11.20;;
20970;SDS011;10644;48.834;10.088;2023-04-28T09:06:59;16.43;;;9.70;;
20970;SDS011;10644;48.834;10.088;2023-04-28T09:09:25;22.20;;;10.30;;
20970;SDS011;10644;48.834;10.088;2023-04-28T09:14:24;17.03;;;9.20;;
20970;SDS011;10644;48.834;10.088;2023-04-28T09:16:50;18.17;;;9.80;;
20970;SDS011;10644;48.834;10.088;2023-04-28T09:19:16;25.23;;;10.70;;
20970;SDS011;10644;48.834;10.088;2023-04-28T09:21:48;22.03;;;8.80;;
20970;SDS011;10644;48.834;10.088;2023-04-28T09:27:00;24.43;;;10.10;;
20970;SDS011;10644;48.834;10.088;2023-04-28T09:29:27;26.13;;;10.30;;
20970;SDS011;10644;48.834;10.088;2023-04-28T09:31:53;19.77;;;9.83;;
20970;SDS011;10644;48.834;10.088;2023-04-28T09:34:19;19.07;;;8.30;;
20970;SDS011;10644;48.834;10.088;2023-04-28T09:36:46;13.93;;;7.67;;
20970;SDS011;10644;48.834;10.088;2023-04-28T09:39:11;15.50;;;6.90;;
20970;SDS011;10644;48.834;10.088;2023-04-28T09:41:42;15.00;;;7.43;;
20970;SDS011;10644;48.834;10.088;2023-04-28T09:44:16;14.33;;;6.93;;
20970;SDS011;10644;48.834;10.088;2023-04-28T09:46:43;19.53;;;7.93;;
20970;SDS011;10644;48.834;10.088;2023-04-28T09:49:10;12.77;;;6.80;;
20970;SDS011;10644;48.834;10.088;2023-04-28T09:51:36;19.33;;;7.20;;
20970;SDS011;10644;48.834;10.088;2023-04-28T09:54:02;13.47;;;7.07;;
20970;SDS011;10644;48.834;10.088;2023-04-28T09:56:28;27.00;;;8.73;;
20970;SDS011;10644;48.834;10.088;2023-04-28T09:58:56;18.20;;;6.87;;
20970;SDS011;10644;48.834;10.088;2023-04-28T10:01:29;14.77;;;7.20;;
20970;SDS011;10644;48.834;10.088;2023-04-28T10:03:57;12.80;;;5.73;;
20970;SDS011;10644;48.834;10.088;2023-04-28T10:06:25;11.83;;;4.87;;
20970;SDS011;10644;48.834;10.088;2023-04-28T10:08:52;10.03;;;3.37;;
20970;SDS011;10644;48.834;10.088;2023-04-28T10:11:21;6.03;;;2.97;;
20970;SDS011;10644;48.834;10.088;2023-04-28T10:13:49;10.00;;;4.17;;
20970;SDS011;10644;48.834;10.088;2023-04-28T10:16:15;8.50;;;3.80;;
20970;SDS011;10644;48.834;10.088;2023-04-28T10:18:41;8.00;;;4.00;;
20970;SDS011;10644;48.834;10.088;2023-04-28T10:21:07;8.80;;;4.30;;
20970;SDS011;10644;48.834;10.088;2023-04-28T10:29:23;9.83;;;4.10;;
20970;SDS011;10644;48.834;10.088;2023-04-28T10:34:39;8.03;;;3.60;;
20970;SDS011;10644;48.834;10.088;2023-04-28T10:37:05;14.17;;;4.43;;
20970;SDS011;10644;48.834;10.088;2023-04-28T10:39:30;9.80;;;3.93;;
20970;SDS011;10644;48.834;10.088;2023-04-28T10:41:56;10.47;;;4.40;;
20970;SDS011;10644;48.834;10.088;2023-04-28T10:58:57;10.40;;;4.27;;
20970;SDS011;10644;48.834;10.088;2023-04-28T11:00:51;8.47;;;3.17;;
20970;SDS011;10644;48.834;10.088;2023-04-28T11:03:50;9.43;;;3.50;;
20970;SDS011;10644;48.834;10.088;2023-04-28T11:06:21;8.93;;;3.40;;
20970;SDS011;10644;48.834;10.088;2023-04-28T11:08:50;10.53;;;4.00;;
20970;SDS011;10644;48.834;10.088;2023-04-28T11:11:22;12.63;;;4.63;;
20970;SDS011;10644;48.834;10.088;2023-04-28T11:13:53;8.77;;;3.57;;
20970;SDS011;10644;48.834;10.088;2023-04-28T11:16:23;10.27;;;4.27;;
20970;SDS011;10644;48.834;10.088;2023-04-28T11:21:16;10.17;;;3.73;;
20970;SDS011;10644;48.834;10.088;2023-04-28T11:23:43;18.03;;;5.37;;
20970;SDS011;10644;48.834;10.088;2023-04-28T11:26:09;11.80;;;4.80;;
20970;SDS011;10644;48.834;10.088;2023-04-28T11:28:35;15.20;;;5.60;;
20970;SDS011;10644;48.834;10.088;2023-04-28T11:31:11;11.87;;;5.00;;
20970;SDS011;10644;48.834;10.088;2023-04-28T11:33:37;35.03;;;15.90;;
20970;SDS011;10644;48.834;10.088;2023-04-28T11:36:04;35.53;;;16.43;;
20970;SDS011;10644;48.834;10.088;2023-04-28T11:38:29;32.57;;;18.47;;
20970;SDS011;10644;48.834;10.088;2023-04-28T11:40:58;26.53;;;15.90;;
20970;SDS011;10644;48.834;10.088;2023-04-28T11:43:31;31.13;;;15.57;;
20970;SDS011;10644;48.834;10.088;2023-04-28T11:45:56;27.93;;;14.70;;
20970;SDS011;10644;48.834;10.088;2023-04-28T11:48:22;20.73;;;9.60;;
20970;SDS011;10644;48.834;10.088;2023-04-28T11:50:47;16.23;;;8.23;;
20970;SDS011;10644;48.834;10.088;2023-04-28T11:53:12;26.50;;;14.00;;
20970;SDS011;10644;48.834;10.088;2023-04-28T11:55:40;16.80;;;8.70;;
20970;SDS011;10644;48.834;10.088;2023-04-28T11:58:18;20.55;;;10.10;;
20970;SDS011;10644;48.834;10.088;2023-04-28T12:01:07;17.30;;;8.73;;
20970;SDS011;10644;48.834;10.088;2023-04-28T12:03:43;12.37;;;7.47;;
20970;SDS011;10644;48.834;10.088;2023-04-28T12:06:11;18.20;;;9.00;;
20970;SDS011;10644;48.834;10.088;2023-04-28T12:08:42;15.03;;;7.07;;
20970;SDS011;10644;48.834;10.088;2023-04-28T12:11:11;11.83;;;6.67;;
20970;SDS011;10644;48.834;10.088;2023-04-28T12:13:37;13.07;;;6.93;;
20970;SDS011;10644;48.834;10.088;2023-04-28T12:16:04;13.50;;;7.03;;
20970;SDS011;10644;48.834;10.088;2023-04-28T12:18:31;12.90;;;6.77;;
20970;SDS011;10644;48.834;10.088;2023-04-28T12:20:57;12.70;;;6.40;;
20970;SDS011;10644;48.834;10.088;2023-04-28T12:25:56;16.70;;;7.13;;
20970;SDS011;10644;48.834;10.088;2023-04-28T12:28:22;15.63;;;7.43;;
20970;SDS011;10644;48.834;10.088;2023-04-28T12:30:49;11.67;;;6.10;;
20970;SDS011;10644;48.834;10.088;2023-04-28T12:33:27;9.30;;;5.57;;
20970;SDS011;10644;48.834;10.088;2023-04-28T12:35:54;11.40;;;5.70;;
20970;SDS011;10644;48.834;10.088;2023-04-28T12:38:21;10.67;;;5.50;;
20970;SDS011;10644;48.834;10.088;2023-04-28T12:40:47;9.20;;;5.60;;
20970;SDS011;10644;48.834;10.088;2023-04-28T12:43:15;8.60;;;5.57;;
20970;SDS011;10644;48.834;10.088;2023-04-28T12:45:51;9.90;;;5.80;;
20970;SDS011;10644;48.834;10.088;2023-04-28T12:48:18;9.57;;;5.47;;
20970;SDS011;10644;48.834;10.088;2023-04-28T12:50:43;12.60;;;6.13;;
20970;SDS011;10644;48.834;10.088;2023-04-28T12:53:10;8.57;;;4.97;;
20970;SDS011;10644;48.834;10.088;2023-04-28T12:55:35;8.60;;;4.30;;
20970;SDS011;10644;48.834;10.088;2023-04-28T12:58:03;7.87;;;4.10;;
20970;SDS011;10644;48.834;10.088;2023-04-28T13:00:29;14.90;;;5.03;;
20970;SDS011;10644;48.834;10.088;2023-04-28T13:02:54;9.07;;;4.30;;
20970;SDS011;10644;48.834;10.088;2023-04-28T13:05:20;6.23;;;3.37;;
20970;SDS011;10644;48.834;10.088;2023-04-28T13:07:45;6.37;;;3.50;;
20970;SDS011;10644;48.834;10.088;2023-04-28T13:10:13;13.93;;;3.93;;
20970;SDS011;10644;48.834;10.088;2023-04-28T13:12:41;11.80;;;5.30;;
20970;SDS011;10644;48.834;10.088;2023-04-28T13:15:07;7.23;;;3.63;;
20970;SDS011;10644;48.834;10.088;2023-04-28T13:17:32;8.50;;;4.03;;
20970;SDS011;10644;48.834;10.088;2023-04-28T13:19:59;6.30;;;3.67;;
20970;SDS011;10644;48.834;10.088;2023-04-28T13:22:25;7.30;;;3.63;;
20970;SDS011;10644;48.834;10.088;2023-04-28T13:24:50;7.97;;;3.53;;
20970;SDS011;10644;48.834;10.088;2023-04-28T13:27:16;10.90;;;5.60;;
20970;SDS011;10644;48.834;10.088;2023-04-28T13:29:41;8.10;;;4.47;;
20970;SDS011;10644;48.834;10.088;2023-04-28T13:32:07;11.30;;;4.50;;
20970;SDS011;10644;48.834;10.088;2023-04-28T13:34:32;5.80;;;3.43;;
20970;SDS011;10644;48.834;10.088;2023-04-28T13:36:58;5.90;;;2.93;;
20970;SDS011;10644;48.834;10.088;2023-04-28T13:39:23;4.87;;;2.67;;
20970;SDS011;10644;48.834;10.088;2023-04-28T13:41:48;4.67;;;2.53;;
20970;SDS011;10644;48.834;10.088;2023-04-28T13:44:14;6.37;;;2.83;;
20970;SDS011;10644;48.834;10.088;2023-04-28T13:46:40;6.27;;;2.77;;
20970;SDS011;10644;48.834;10.088;2023-04-28T13:49:06;6.77;;;3.00;;
20970;SDS011;10644;48.834;10.088;2023-04-28T13:51:33;13.80;;;5.00;;
20970;SDS011;10644;48.834;10.088;2023-04-28T13:53:59;4.63;;;2.60;;
20970;SDS011;10644;48.834;10.088;2023-04-28T13:56:28;10.30;;;4.30;;
20970;SDS011;10644;48.834;10.088;2023-04-28T13:58:57;12.53;;;5.27;;
20970;SDS011;10644;48.834;10.088;2023-04-28T14:01:23;12.80;;;4.83;;
20970;SDS011;10644;48.834;10.088;2023-04-28T14:03:49;10.63;;;4.30;;
20970;SDS011;10644;48.834;10.088;2023-04-28T14:06:16;11.73;;;4.03;;
20970;SDS011;10644;48.834;10.088;2023-04-28T14:08:45;10.27;;;3.40;;
20970;SDS011;10644;48.834;10.088;2023-04-28T14:11:12;11.20;;;3.07;;
20970;SDS011;10644;48.834;10.088;2023-04-28T14:13:38;9.13;;;3.80;;
20970;SDS011;10644;48.834;10.088;2023-04-28T14:16:06;5.90;;;2.83;;
20970;SDS011;10644;48.834;10.088;2023-04-28T14:18:31;4.43;;;2.20;;
20970;SDS011;10644;48.834;10.088;2023-04-28T14:21:00;7.60;;;2.80;;
20970;SDS011;10644;48.834;10.088;2023-04-28T14:23:27;12.73;;;3.70;;
20970;SDS011;10644;48.834;10.088;2023-04-28T14:25:52;5.97;;;2.83;;
20970;SDS011;10644;48.834;10.088;2023-04-28T14:28:22;7.13;;;2.47;;
20970;SDS011;10644;48.834;10.088;2023-04-28T14:30:47;6.80;;;3.43;;
20970;SDS011;10644;48.834;10.088;2023-04-28T14:33:14;9.40;;;4.10;;
20970;SDS011;10644;48.834;10.088;2023-04-28T14:35:39;7.57;;;3.20;;
20970;SDS011;10644;48.834;10.088;2023-04-28T14:38:05;14.90;;;4.53;;
20970;SDS011;10644;48.834;10.088;2023-04-28T14:40:31;5.77;;;2.80;;
20970;SDS011;10644;48.834;10.088;2023-04-28T14:42:56;6.30;;;2.70;;
20970;SDS011;10644;48.834;10.088;2023-04-28T14:45:22;12.53;;;5.40;;
20970;SDS011;10644;48.834;10.088;2023-04-28T14:47:50;40.10;;;23.20;;
20970;SDS011;10644;48.834;10.088;2023-04-28T14:50:16;7.17;;;3.80;;
20970;SDS011;10644;48.834;10.088;2023-04-28T14:52:42;7.80;;;3.27;;